Time;durP1;ratioP1;P1;durP2;ratioP2;P2;SDS_P1;SDS_P2;PMS_P1;PMS_P2;Temp;Humidity;BMP_temperature;BMP_pressure;BME280_temperature;BME280_humidity;BME280_pressure;Samples;Min_cycle;Max_cycle;Signal;HPM_P1;HPM_P2
2023/06/29 00:01:03;;;;;;;2.73;2.23;;;16.50;99.90;;;;;;5131613;27;20439;-68
2023/06/29 00:03:29;;;;;;;8.83;2.87;;;16.40;99.90;;;;;;5150124;27;20421;-67
2023/06/29 00:05:55;;;;;;;5.97;1.97;;;16.40;99.90;;;;;;5150186;27;20456;-68
2023/06/29 00:08:25;;;;;;;6.97;2.60;;;16.50;99.90;;;;;;5150130;27;20524;-67
2023/06/29 00:10:52;;;;;;;3.40;2.40;;;16.40;99.90;;;;;;5149957;27;20436;-67
2023/06/29 00:13:19;;;;;;;7.10;2.97;;;16.40;99.90;;;;;;5131647;27;20993;-67
2023/06/29 00:15:45;;;;;;;5.83;2.33;;;16.50;99.90;;;;;;5149962;27;20937;-68
2023/06/29 00:18:12;;;;;;;6.13;2.40;;;16.60;99.90;;;;;;5150032;27;20412;-67
2023/06/29 00:20:39;;;;;;;6.00;2.80;;;16.60;99.90;;;;;;5131029;27;20475;-67
2023/06/29 00:23:04;;;;;;;4.60;2.83;;;16.60;99.90;;;;;;5131409;27;20421;-67
2023/06/29 00:25:32;;;;;;;7.50;2.10;;;16.50;99.90;;;;;;5131226;27;20469;-67
2023/06/29 00:27:58;;;;;;;5.93;2.80;;;16.40;99.90;;;;;;5150025;27;20612;-67
2023/06/29 00:30:23;;;;;;;4.00;2.37;;;16.30;99.90;;;;;;5149755;27;20444;-66
2023/06/29 00:32:49;;;;;;;5.60;2.50;;;16.20;99.90;;;;;;5149982;27;20421;-67
2023/06/29 00:35:15;;;;;;;6.47;2.80;;;16.30;99.90;;;;;;5132590;27;20289;-66
2023/06/29 00:37:42;;;;;;;4.67;2.87;;;16.30;99.90;;;;;;5154273;27;20187;-67
2023/06/29 00:40:08;;;;;;;4.70;2.87;;;16.40;99.90;;;;;;5135556;27;20214;-67
2023/06/29 00:42:34;;;;;;;3.83;2.60;;;16.30;99.90;;;;;;5154149;27;20410;-68
2023/06/29 00:44:59;;;;;;;5.70;2.53;;;16.30;99.90;;;;;;5153986;27;20442;-66
2023/06/29 00:47:25;;;;;;;3.13;1.83;;;16.20;99.90;;;;;;5135144;27;20515;-67
2023/06/29 00:49:51;;;;;;;7.07;2.63;;;16.30;99.90;;;;;;5153896;27;20329;-67
2023/06/29 00:52:16;;;;;;;3.50;2.50;;;16.40;99.90;;;;;;5153952;27;20191;-67
2023/06/29 00:54:43;;;;;;;3.63;2.77;;;16.20;99.90;;;;;;5154160;27;20198;-67
2023/06/29 00:57:08;;;;;;;4.10;2.67;;;16.20;99.90;;;;;;5154038;27;20182;-68
2023/06/29 00:59:35;;;;;;;4.43;2.60;;;16.20;99.90;;;;;;5153792;27;20523;-67
2023/06/29 01:02:01;;;;;;;3.77;2.60;;;16.10;99.90;;;;;;5135127;27;20202;-67
2023/06/29 01:04:27;;;;;;;5.83;2.60;;;16.10;99.90;;;;;;5153865;27;20906;-67
2023/06/29 01:07:15;;;;;;;8.13;2.37;;;16.10;99.90;;;;;;5153686;27;20179;-67
2023/06/29 01:09:44;;;;;;;8.37;2.67;;;16.10;99.90;;;;;;5153840;27;20471;-67
2023/06/29 01:12:12;;;;;;;3.43;2.40;;;16.00;99.90;;;;;;5153558;27;20455;-66
2023/06/29 01:14:39;;;;;;;6.87;2.93;;;16.00;99.90;;;;;;5153337;27;20806;-66
2023/06/29 01:17:07;;;;;;;3.63;3.20;;;16.00;99.90;;;;;;5134531;27;20424;-68
2023/06/29 01:19:33;;;;;;;4.43;2.63;;;15.90;99.90;;;;;;5153289;27;20493;-68
2023/06/29 01:22:08;;;;;;;3.83;2.67;;;15.80;99.90;;;;;;5153618;27;20442;-68
2023/06/29 01:24:38;;;;;;;3.87;3.47;;;15.80;99.90;;;;;;5153338;27;20464;-68
2023/06/29 01:27:06;;;;;;;5.80;2.70;;;15.80;99.90;;;;;;5134596;27;20861;-68
2023/06/29 01:29:32;;;;;;;5.90;2.27;;;15.80;99.90;;;;;;5134455;27;21070;-67
2023/06/29 01:32:03;;;;;;;3.73;2.73;;;15.80;99.90;;;;;;5153688;27;20418;-67
2023/06/29 01:34:30;;;;;;;3.53;2.97;;;15.70;99.90;;;;;;5153399;27;20181;-67
2023/06/29 01:37:02;;;;;;;4.57;2.47;;;15.70;99.90;;;;;;5153012;27;20491;-67
2023/06/29 01:39:34;;;;;;;4.10;2.80;;;15.60;99.90;;;;;;5153060;27;20476;-67
2023/06/29 01:42:00;;;;;;;5.20;2.60;;;15.70;99.90;;;;;;5153198;27;20421;-67
2023/06/29 01:44:26;;;;;;;15.47;3.27;;;15.60;99.90;;;;;;5152897;27;20774;-67
2023/06/29 01:46:52;;;;;;;3.63;2.67;;;15.60;99.90;;;;;;5151737;27;20408;-67
2023/06/29 01:49:17;;;;;;;4.27;3.20;;;15.60;99.90;;;;;;5152724;27;20650;-67
2023/06/29 01:51:43;;;;;;;4.10;3.27;;;15.50;99.90;;;;;;5134134;27;20446;-68
2023/06/29 01:54:09;;;;;;;6.87;3.17;;;15.50;99.90;;;;;;5152664;27;20188;-67
2023/06/29 01:56:34;;;;;;;5.20;3.13;;;15.50;99.90;;;;;;5152595;27;20182;-67
2023/06/29 01:59:01;;;;;;;5.83;3.43;;;15.50;99.90;;;;;;5152403;27;20210;-68
2023/06/29 02:01:28;;;;;;;6.40;2.90;;;15.50;99.90;;;;;;5134048;27;20231;-67
2023/06/29 02:03:53;;;;;;;5.00;2.80;;;15.40;99.90;;;;;;5152719;27;20415;-67
2023/06/29 02:06:19;;;;;;;4.27;2.70;;;15.30;99.90;;;;;;5133829;27;20419;-68
2023/06/29 02:08:45;;;;;;;7.73;3.00;;;15.20;99.90;;;;;;5152511;27;20214;-68
2023/06/29 02:11:10;;;;;;;3.73;2.80;;;15.30;99.90;;;;;;5133915;27;20217;-67
2023/06/29 02:13:36;;;;;;;6.97;3.50;;;15.20;99.90;;;;;;5152272;27;20418;-67
2023/06/29 02:16:02;;;;;;;5.90;3.47;;;15.30;99.90;;;;;;5133559;27;20608;-67
2023/06/29 02:18:27;;;;;;;4.13;2.60;;;15.30;99.90;;;;;;5152256;27;20179;-67
2023/06/29 02:20:53;;;;;;;7.10;3.67;;;15.20;99.90;;;;;;5152082;27;20281;-67
2023/06/29 02:23:19;;;;;;;3.23;2.90;;;15.20;99.90;;;;;;5133190;27;20182;-67
2023/06/29 02:25:44;;;;;;;4.30;2.83;;;15.20;99.90;;;;;;5152036;27;20916;-67
2023/06/29 02:28:10;;;;;;;7.10;3.60;;;15.10;99.90;;;;;;5133059;27;20288;-67
2023/06/29 02:30:35;;;;;;;4.30;2.90;;;14.90;99.90;;;;;;5151916;27;20222;-67
2023/06/29 02:33:01;;;;;;;3.80;3.40;;;14.90;99.90;;;;;;5152276;27;20190;-67
2023/06/29 02:35:26;;;;;;;7.60;3.27;;;14.90;99.90;;;;;;5133490;27;20611;-67
2023/06/29 02:37:52;;;;;;;5.17;3.07;;;14.90;99.90;;;;;;5151643;27;20265;-67
2023/06/29 02:40:17;;;;;;;6.93;3.67;;;15.00;99.90;;;;;;5132986;27;20653;-67
2023/06/29 02:42:43;;;;;;;3.50;3.20;;;14.90;99.90;;;;;;5151757;27;20188;-67
2023/06/29 02:45:09;;;;;;;3.80;3.07;;;14.90;99.90;;;;;;5151756;27;20171;-67
2023/06/29 02:47:34;;;;;;;7.60;3.13;;;14.90;99.90;;;;;;5132974;27;20187;-68
2023/06/29 02:50:01;;;;;;;3.27;2.90;;;14.90;99.90;;;;;;5151607;27;20204;-68
2023/06/29 02:52:26;;;;;;;6.60;3.43;;;14.90;99.90;;;;;;5151528;27;20184;-67
2023/06/29 02:54:52;;;;;;;8.17;3.50;;;14.80;99.90;;;;;;5116026;27;20422;-67
2023/06/29 02:57:17;;;;;;;5.73;3.10;;;14.80;99.90;;;;;;5151449;27;20209;-68
2023/06/29 02:59:43;;;;;;;4.87;3.10;;;14.80;99.90;;;;;;5151259;27;20241;-67
2023/06/29 03:02:09;;;;;;;4.63;2.90;;;14.70;99.90;;;;;;5151499;27;20207;-71
2023/06/29 03:04:34;;;;;;;7.67;3.60;;;14.80;99.90;;;;;;5151444;27;20650;-72
2023/06/29 03:07:00;;;;;;;2.57;2.20;;;14.70;99.90;;;;;;5132789;27;20290;-71
2023/06/29 03:09:25;;;;;;;6.93;3.07;;;14.70;99.90;;;;;;5132766;27;20682;-71
2023/06/29 03:11:51;;;;;;;6.40;3.10;;;14.60;99.90;;;;;;5132386;27;20607;-71
2023/06/29 03:14:16;;;;;;;3.70;2.83;;;14.50;99.90;;;;;;5132833;27;20190;-72
2023/06/29 03:16:42;;;;;;;4.83;2.30;;;14.60;99.90;;;;;;5151093;27;20236;-71
2023/06/29 03:19:08;;;;;;;6.00;3.77;;;14.50;99.90;;;;;;5132354;27;20202;-71
2023/06/29 03:21:33;;;;;;;3.50;2.70;;;14.40;99.90;;;;;;5150998;27;20185;-71
2023/06/29 03:23:59;;;;;;;4.90;3.40;;;14.50;99.90;;;;;;5132443;27;20205;-71
2023/06/29 03:26:25;;;;;;;5.13;3.20;;;14.60;99.90;;;;;;5151102;27;20548;-71
2023/06/29 03:28:50;;;;;;;5.47;2.70;;;14.70;99.90;;;;;;5132120;27;20182;-71
2023/06/29 03:31:16;;;;;;;6.40;3.30;;;14.70;99.90;;;;;;5114923;27;20572;-70
2023/06/29 03:33:42;;;;;;;6.23;3.63;;;14.60;99.90;;;;;;5132147;27;20186;-70
2023/06/29 03:36:11;;;;;;;5.67;3.50;;;14.60;99.90;;;;;;5150757;27;20173;-70
2023/06/29 03:38:36;;;;;;;10.20;3.40;;;14.60;99.90;;;;;;5151208;27;20786;-70
2023/06/29 03:41:02;;;;;;;8.70;3.10;;;14.60;99.90;;;;;;5151065;27;20462;-71
2023/06/29 03:43:27;;;;;;;6.20;2.70;;;14.60;99.90;;;;;;5132525;27;20191;-71
2023/06/29 03:45:53;;;;;;;3.53;3.10;;;14.60;99.90;;;;;;5133114;27;20184;-70
2023/06/29 03:48:20;;;;;;;4.87;3.60;;;14.60;99.90;;;;;;5151226;27;20258;-70
2023/06/29 03:50:46;;;;;;;3.97;2.83;;;14.50;99.90;;;;;;5132781;27;20314;-70
2023/06/29 03:53:11;;;;;;;3.30;2.80;;;14.60;99.90;;;;;;5151123;27;20517;-70
2023/06/29 03:55:37;;;;;;;4.10;3.50;;;14.60;99.90;;;;;;5115169;27;20194;-72
2023/06/29 03:58:02;;;;;;;3.80;2.60;;;14.70;99.90;;;;;;5150947;27;20587;-72
2023/06/29 04:00:28;;;;;;;4.20;3.10;;;14.70;99.90;;;;;;5150959;27;20608;-70
2023/06/29 04:02:54;;;;;;;5.37;3.10;;;14.70;99.90;;;;;;5150480;27;20312;-70
2023/06/29 04:05:19;;;;;;;4.80;3.00;;;14.80;99.90;;;;;;5150486;27;20238;-71
2023/06/29 04:07:45;;;;;;;3.23;2.53;;;14.80;99.90;;;;;;5150135;27;20286;-71
2023/06/29 04:10:10;;;;;;;6.27;2.90;;;14.90;99.90;;;;;;5150139;27;20193;-72
2023/06/29 04:12:36;;;;;;;7.00;2.87;;;15.10;99.90;;;;;;5150150;27;20189;-72
2023/06/29 04:15:02;;;;;;;7.60;3.00;;;15.20;99.90;;;;;;5097540;27;20189;-71
2023/06/29 04:17:27;;;;;;;5.00;3.20;;;15.20;99.90;;;;;;5130299;27;20188;-71
2023/06/29 04:19:53;;;;;;;7.77;2.73;;;15.20;99.90;;;;;;5113000;27;20221;-71
2023/06/29 04:22:18;;;;;;;5.23;2.67;;;15.20;99.90;;;;;;5148594;27;20266;-71
2023/06/29 04:24:44;;;;;;;3.30;3.00;;;15.30;99.90;;;;;;5148773;27;20178;-71
2023/06/29 04:27:10;;;;;;;8.83;2.97;;;15.30;99.90;;;;;;5148750;27;20977;-72
2023/06/29 04:29:35;;;;;;;5.63;3.00;;;15.30;99.90;;;;;;5130243;27;20265;-71
2023/06/29 04:32:01;;;;;;;5.40;3.00;;;15.40;99.90;;;;;;5148672;27;20420;-71
2023/06/29 04:34:26;;;;;;;6.60;3.00;;;15.60;99.90;;;;;;5130059;27;20197;-71
2023/06/29 04:36:56;;;;;;;5.20;2.90;;;15.60;99.90;;;;;;5148741;27;20219;-71
2023/06/29 04:39:22;;;;;;;6.47;2.83;;;15.70;99.90;;;;;;5148781;27;20632;-71
2023/06/29 04:41:47;;;;;;;4.33;2.63;;;15.70;99.90;;;;;;5148378;27;20411;-71
2023/06/29 04:44:13;;;;;;;5.50;2.50;;;15.80;99.90;;;;;;5130196;27;20185;-71
2023/06/29 04:46:39;;;;;;;6.80;3.00;;;15.80;99.90;;;;;;5130340;27;20190;-71
2023/06/29 04:49:06;;;;;;;5.67;3.27;;;15.90;99.90;;;;;;5148698;27;20182;-71
2023/06/29 04:51:35;;;;;;;3.63;3.00;;;16.10;99.90;;;;;;5130489;27;20412;-70
2023/06/29 04:54:02;;;;;;;7.23;3.43;;;16.10;99.90;;;;;;5130660;27;20417;-71
2023/06/29 04:56:27;;;;;;;6.17;3.80;;;16.20;99.90;;;;;;5132197;27;20952;-71
2023/06/29 04:58:53;;;;;;;6.57;2.80;;;16.20;99.90;;;;;;5131476;27;20417;-71
2023/06/29 05:01:19;;;;;;;7.27;3.40;;;16.20;99.90;;;;;;5149316;27;20246;-71
2023/06/29 05:03:44;;;;;;;5.10;2.90;;;16.30;99.90;;;;;;5149601;27;20288;-70
2023/06/29 05:06:10;;;;;;;4.43;3.33;;;16.40;99.90;;;;;;5113134;27;20186;-70
2023/06/29 05:08:35;;;;;;;3.20;2.30;;;16.50;99.90;;;;;;5148985;27;20191;-71
2023/06/29 05:11:01;;;;;;;5.17;2.97;;;16.60;99.90;;;;;;5130082;27;20680;-70
2023/06/29 05:13:27;;;;;;;6.67;2.93;;;16.60;99.90;;;;;;5148445;27;20203;-71
2023/06/29 05:15:53;;;;;;;8.33;2.40;;;16.60;99.90;;;;;;5129939;27;20416;-70
2023/06/29 05:18:18;;;;;;;5.10;3.10;;;16.80;99.90;;;;;;5148481;27;20718;-70
2023/06/29 05:20:45;;;;;;;7.20;2.60;;;17.00;99.90;;;;;;5148671;27;20215;-70
2023/06/29 05:23:11;;;;;;;4.40;2.60;;;17.10;99.90;;;;;;5152171;27;20585;-70
2023/06/29 05:25:41;;;;;;;4.80;3.13;;;17.20;99.90;;;;;;5133613;27;20421;-70
2023/06/29 05:28:07;;;;;;;4.43;2.47;;;17.40;99.90;;;;;;5152068;27;20441;-75
2023/06/29 05:30:34;;;;;;;4.50;2.27;;;17.50;99.90;;;;;;5152276;27;20523;-70
2023/06/29 05:32:59;;;;;;;8.47;2.47;;;17.60;99.90;;;;;;5152004;27;20540;-71
2023/06/29 05:35:25;;;;;;;6.17;2.67;;;17.60;99.90;;;;;;5116073;27;20520;-72
2023/06/29 05:37:50;;;;;;;4.97;2.43;;;17.80;99.90;;;;;;5116184;27;20190;-70
2023/06/29 05:40:16;;;;;;;7.40;2.70;;;17.70;99.90;;;;;;5134064;27;20213;-71
2023/06/29 05:42:42;;;;;;;3.13;2.67;;;17.90;99.90;;;;;;5133871;27;20285;-71
2023/06/29 05:45:08;;;;;;;6.63;2.60;;;18.00;99.90;;;;;;5152196;27;20182;-71
2023/06/29 05:47:33;;;;;;;5.40;2.93;;;17.90;99.90;;;;;;5133853;27;20213;-71
2023/06/29 05:50:00;;;;;;;6.63;3.80;;;18.00;99.90;;;;;;5152445;27;20202;-71
2023/06/29 05:52:25;;;;;;;3.80;3.07;;;18.10;99.90;;;;;;5152483;27;20186;-71
2023/06/29 05:54:51;;;;;;;4.10;2.57;;;18.20;99.90;;;;;;5133589;27;20427;-71
2023/06/29 05:57:16;;;;;;;7.03;3.60;;;18.30;99.90;;;;;;5133122;27;20353;-71
2023/06/29 05:59:42;;;;;;;3.90;3.00;;;18.70;99.90;;;;;;5151668;27;20722;-70
2023/06/29 06:02:08;;;;;;;7.77;3.70;;;18.80;99.90;;;;;;5151655;27;20250;-70
2023/06/29 06:04:37;;;;;;;6.77;3.27;;;18.90;99.90;;;;;;5151696;27;20891;-71
2023/06/29 06:07:03;;;;;;;5.93;3.03;;;19.10;99.90;;;;;;5151597;27;20440;-70
2023/06/29 06:09:28;;;;;;;12.13;3.60;;;19.40;99.90;;;;;;5151297;27;20465;-70
2023/06/29 06:11:54;;;;;;;7.20;3.83;;;19.60;99.90;;;;;;5151537;27;20887;-70
2023/06/29 06:14:20;;;;;;;11.60;4.20;;;19.70;99.90;;;;;;5151505;27;20444;-70
2023/06/29 06:16:46;;;;;;;8.23;4.27;;;19.80;99.90;;;;;;5151356;27;20524;-71
2023/06/29 06:19:12;;;;;;;4.83;4.00;;;19.70;99.90;;;;;;5132122;27;20461;-70
2023/06/29 06:21:37;;;;;;;12.53;4.00;;;19.90;99.90;;;;;;5132378;27;20679;-71
2023/06/29 06:24:03;;;;;;;6.40;4.03;;;19.90;99.90;;;;;;5150991;27;20677;-71
2023/06/29 06:26:29;;;;;;;4.67;3.43;;;19.90;99.90;;;;;;5150907;27;20226;-71
2023/06/29 06:28:54;;;;;;;5.00;3.60;;;20.00;99.90;;;;;;5132232;27;20504;-71
2023/06/29 06:31:20;;;;;;;7.70;4.40;;;20.10;99.90;;;;;;5132107;27;20557;-71
2023/06/29 06:33:46;;;;;;;10.10;4.60;;;20.10;99.90;;;;;;5131461;27;20187;-70
2023/06/29 06:36:12;;;;;;;5.10;4.00;;;20.20;99.90;;;;;;5132045;27;20188;-70
2023/06/29 06:38:37;;;;;;;11.53;4.33;;;20.30;99.90;;;;;;5150982;27;20855;-70
2023/06/29 06:41:03;;;;;;;5.87;4.30;;;20.40;99.90;;;;;;5150124;27;20212;-70
2023/06/29 06:43:28;;;;;;;6.50;4.30;;;20.40;99.90;;;;;;5131850;27;20279;-70
2023/06/29 06:45:54;;;;;;;8.27;4.10;;;20.50;99.90;;;;;;5131574;27;20229;-70
2023/06/29 06:48:19;;;;;;;6.43;4.03;;;20.70;99.90;;;;;;5150197;27;20212;-71
2023/06/29 06:50:45;;;;;;;10.07;4.40;;;20.80;99.90;;;;;;5131415;27;20574;-71
2023/06/29 06:53:11;;;;;;;5.67;4.10;;;20.80;99.90;;;;;;5150405;27;20212;-70
2023/06/29 06:55:37;;;;;;;7.20;3.70;;;20.90;99.90;;;;;;5150531;27;20265;-71
2023/06/29 06:58:03;;;;;;;13.53;3.80;;;21.00;99.90;;;;;;5150328;27;20430;-71
2023/06/29 07:00:28;;;;;;;6.47;3.67;;;21.00;99.90;;;;;;5149862;27;20216;-71
2023/06/29 07:02:54;;;;;;;4.70;3.93;;;21.10;99.90;;;;;;5131200;27;20196;-71
2023/06/29 07:05:19;;;;;;;4.80;3.73;;;21.10;99.90;;;;;;5131420;27;20215;-69
2023/06/29 07:07:46;;;;;;;10.53;4.43;;;21.20;99.90;;;;;;5150138;27;20216;-71
2023/06/29 07:10:12;;;;;;;9.87;4.43;;;21.30;99.90;;;;;;5150241;27;20204;-72
2023/06/29 07:12:38;;;;;;;6.83;3.77;;;21.50;99.90;;;;;;5149917;27;20422;-72
2023/06/29 07:15:04;;;;;;;3.43;3.10;;;21.60;99.90;;;;;;5149857;27;20416;-71
2023/06/29 07:17:30;;;;;;;7.00;3.70;;;21.70;99.90;;;;;;5150372;27;20421;-71
2023/06/29 07:19:56;;;;;;;5.13;2.93;;;21.70;99.90;;;;;;5149923;27;21017;-71
2023/06/29 07:22:22;;;;;;;4.20;3.00;;;21.90;99.90;;;;;;5130810;27;20663;-71
2023/06/29 07:24:47;;;;;;;10.50;4.03;;;22.00;99.90;;;;;;5149832;27;20436;-71
2023/06/29 07:27:13;;;;;;;6.13;3.33;;;22.10;99.90;;;;;;5130368;27;20198;-71
2023/06/29 07:29:42;;;;;;;6.40;3.63;;;22.30;99.90;;;;;;5149545;27;20223;-71
2023/06/29 07:32:08;;;;;;;6.67;3.40;;;22.30;99.90;;;;;;5130684;27;20204;-71
2023/06/29 07:34:34;;;;;;;5.07;3.40;;;22.30;99.90;;;;;;5113744;27;20447;-71
2023/06/29 07:37:00;;;;;;;6.27;4.00;;;22.30;99.90;;;;;;5149276;27;20418;-70
2023/06/29 07:39:25;;;;;;;7.90;4.00;;;22.50;99.40;;;;;;5149580;27;20217;-71
2023/06/29 07:41:51;;;;;;;5.40;3.40;;;22.40;99.90;;;;;;5149520;27;20242;-70
2023/06/29 07:44:17;;;;;;;4.80;3.43;;;22.60;99.90;;;;;;5148657;27;20185;-70
2023/06/29 07:46:42;;;;;;;3.57;3.00;;;22.70;98.50;;;;;;5113014;27;20194;-71
2023/06/29 07:49:08;;;;;;;3.60;3.30;;;22.80;97.80;;;;;;5148864;27;20180;-72
2023/06/29 07:51:34;;;;;;;9.07;3.33;;;22.80;98.60;;;;;;5149068;27;20192;-70
2023/06/29 07:54:04;;;;;;;7.20;3.50;;;22.90;98.30;;;;;;5113141;27;20414;-71
2023/06/29 07:56:33;;;;;;;3.93;2.40;;;23.10;98.40;;;;;;5149077;27;20179;-71
2023/06/29 07:58:59;;;;;;;3.73;2.73;;;23.20;96.20;;;;;;5149308;27;20865;-71
2023/06/29 08:01:24;;;;;;;8.20;2.83;;;23.40;97.30;;;;;;5148811;27;20528;-71
2023/06/29 08:03:50;;;;;;;5.90;2.20;;;23.60;96.80;;;;;;5149042;27;20190;-70
2023/06/29 08:06:15;;;;;;;2.50;2.30;;;23.80;95.50;;;;;;5130280;27;20197;-70
2023/06/29 08:08:41;;;;;;;6.07;2.70;;;24.10;95.30;;;;;;5148782;27;20561;-70
2023/06/29 08:11:10;;;;;;;4.70;2.57;;;24.10;92.90;;;;;;5148798;27;20770;-71
2023/06/29 08:13:36;;;;;;;3.93;2.47;;;24.20;94.10;;;;;;5148820;27;20181;-71
2023/06/29 08:16:01;;;;;;;3.37;2.37;;;24.30;93.40;;;;;;5148785;27;20419;-71
2023/06/29 08:18:27;;;;;;;4.40;3.03;;;24.40;94.10;;;;;;5129894;27;20199;-71
2023/06/29 08:20:52;;;;;;;4.57;2.27;;;24.50;93.30;;;;;;5148555;27;20225;-71
2023/06/29 08:23:18;;;;;;;2.80;2.10;;;24.60;92.70;;;;;;5148695;27;20218;-71
2023/06/29 08:25:44;;;;;;;4.20;2.40;;;24.70;93.10;;;;;;5112830;27;20187;-71
2023/06/29 08:28:09;;;;;;;2.57;1.83;;;24.90;92.70;;;;;;5129948;27;20251;-71
2023/06/29 08:30:35;;;;;;;3.77;2.47;;;25.20;92.30;;;;;;5129506;27;20228;-70
2023/06/29 08:33:00;;;;;;;5.00;2.20;;;25.50;91.30;;;;;;5148432;27;20186;-71
2023/06/29 08:35:26;;;;;;;11.30;2.63;;;25.80;90.40;;;;;;5148491;27;20176;-70
2023/06/29 08:37:52;;;;;;;5.47;2.30;;;26.00;87.70;;;;;;5129534;27;20190;-72
2023/06/29 08:40:21;;;;;;;2.87;2.07;;;26.20;88.20;;;;;;5148444;27;20230;-70
2023/06/29 08:42:47;;;;;;;3.40;2.30;;;26.20;86.00;;;;;;5148703;27;20224;-71
2023/06/29 08:45:13;;;;;;;2.63;1.93;;;26.10;86.20;;;;;;5129515;27;20793;-70
2023/06/29 08:47:39;;;;;;;6.63;2.40;;;26.00;85.90;;;;;;5148596;27;20470;-70
2023/06/29 08:50:08;;;;;;;5.40;2.37;;;26.00;84.80;;;;;;5112445;27;20244;-71
2023/06/29 08:52:35;;;;;;;3.60;2.10;;;26.10;84.50;;;;;;5148800;27;20792;-71
2023/06/29 08:55:01;;;;;;;4.60;2.10;;;26.20;82.70;;;;;;5149019;27;20406;-71
2023/06/29 08:57:29;;;;;;;6.97;2.33;;;26.10;83.90;;;;;;5133197;27;21044;-70
2023/06/29 08:59:55;;;;;;;4.27;2.23;;;26.10;82.90;;;;;;5116697;27;20465;-70
2023/06/29 09:02:21;;;;;;;5.77;1.93;;;26.40;83.30;;;;;;5133529;27;20537;-70
2023/06/29 09:04:46;;;;;;;5.37;2.00;;;27.00;81.70;;;;;;5133686;27;20516;-71
2023/06/29 09:07:15;;;;;;;4.50;2.00;;;27.00;80.10;;;;;;5152419;27;20844;-70
2023/06/29 09:09:41;;;;;;;3.73;2.33;;;26.90;81.20;;;;;;5151898;27;20204;-71
2023/06/29 09:12:08;;;;;;;2.90;2.20;;;26.60;81.90;;;;;;5152024;27;20425;-71
2023/06/29 09:14:38;;;;;;;3.50;2.47;;;26.70;81.80;;;;;;5152361;27;20184;-71
2023/06/29 09:17:14;;;;;;;6.43;2.47;;;26.70;82.40;;;;;;5116948;27;20429;-71
2023/06/29 09:19:42;;;;;;;4.27;2.53;;;26.90;82.00;;;;;;5152238;27;20521;-70
2023/06/29 09:22:08;;;;;;;13.43;2.70;;;26.80;81.70;;;;;;5151978;27;20440;-70
2023/06/29 09:24:35;;;;;;;3.43;2.23;;;26.50;82.40;;;;;;5152018;27;20484;-70
2023/06/29 09:27:01;;;;;;;3.87;2.30;;;26.30;85.60;;;;;;5152251;27;20445;-71
2023/06/29 09:29:27;;;;;;;3.67;2.53;;;26.20;85.20;;;;;;5132975;27;20522;-70
2023/06/29 09:31:57;;;;;;;5.90;2.13;;;26.20;82.00;;;;;;5152208;27;20462;-70
2023/06/29 09:34:26;;;;;;;5.53;2.40;;;26.10;82.90;;;;;;5152135;27;20544;-72
2023/06/29 09:36:52;;;;;;;5.20;2.30;;;26.40;81.30;;;;;;5152035;27;20417;-70
2023/06/29 09:39:19;;;;;;;7.93;2.23;;;26.60;82.20;;;;;;5151915;27;20419;-70
2023/06/29 09:41:49;;;;;;;4.17;2.23;;;26.50;82.40;;;;;;5152081;27;20418;-71
2023/06/29 09:44:19;;;;;;;6.67;2.60;;;26.70;81.60;;;;;;5133206;27;20521;-71
2023/06/29 09:47:02;;;;;;;7.17;2.63;;;27.10;82.20;;;;;;5133561;27;20794;-71
2023/06/29 09:49:28;;;;;;;4.60;2.10;;;27.70;81.20;;;;;;5151340;27;21000;-71
2023/06/29 09:52:03;;;;;;;3.93;2.50;;;28.00;77.60;;;;;;5151488;27;20414;-71
2023/06/29 09:54:36;;;;;;;10.37;2.30;;;28.30;77.50;;;;;;5116177;27;20556;-71
2023/06/29 09:57:03;;;;;;;3.17;2.23;;;28.60;77.30;;;;;;5151488;27;20449;-71
2023/06/29 09:59:31;;;;;;;7.70;2.60;;;28.80;76.20;;;;;;5151217;27;20921;-70
2023/06/29 10:02:01;;;;;;;4.63;2.20;;;29.00;77.00;;;;;;5151444;27;20406;-71
2023/06/29 10:04:26;;;;;;;7.17;2.40;;;29.20;76.70;;;;;;5151525;27;21245;-71
2023/06/29 10:07:08;;;;;;;6.97;2.90;;;29.30;73.60;;;;;;5132000;27;20422;-71
2023/06/29 10:09:40;;;;;;;6.00;2.60;;;29.40;73.80;;;;;;5131944;27;20216;-71
2023/06/29 10:12:09;;;;;;;3.37;1.97;;;29.20;72.90;;;;;;5132266;27;20504;-71
2023/06/29 10:14:36;;;;;;;4.27;1.70;;;29.10;72.00;;;;;;5151202;27;20471;-72
2023/06/29 10:17:04;;;;;;;3.77;2.47;;;29.30;73.40;;;;;;5132366;27;20437;-72
2023/06/29 10:19:32;;;;;;;4.53;2.60;;;29.50;73.40;;;;;;5132293;27;20461;-70
2023/06/29 10:22:05;;;;;;;2.70;2.03;;;29.60;73.50;;;;;;5151159;27;20412;-71
2023/06/29 10:24:38;;;;;;;5.10;2.30;;;29.90;73.20;;;;;;5151143;27;20505;-70
2023/06/29 10:27:05;;;;;;;3.57;2.20;;;30.00;73.10;;;;;;5151428;27;21063;-70
2023/06/29 10:29:42;;;;;;;3.20;2.13;;;30.10;72.00;;;;;;5151614;27;21049;-70
2023/06/29 10:32:07;;;;;;;3.53;2.13;;;30.60;74.50;;;;;;5151625;27;21146;-72
2023/06/29 10:34:33;;;;;;;4.53;2.27;;;30.80;72.50;;;;;;5151452;27;20418;-71
2023/06/29 10:37:02;;;;;;;3.17;2.50;;;31.20;72.90;;;;;;5133108;27;20207;-71
2023/06/29 10:39:41;;;;;;;3.97;2.20;;;30.80;69.70;;;;;;5151353;27;20590;-72
2023/06/29 10:42:12;;;;;;;3.20;2.50;;;30.70;68.10;;;;;;5132515;27;20413;-74
2023/06/29 10:44:38;;;;;;;3.70;2.40;;;30.10;68.80;;;;;;5151487;27;20498;-71
2023/06/29 10:47:04;;;;;;;3.37;2.43;;;29.90;70.20;;;;;;5151438;27;20413;-71
2023/06/29 10:49:30;;;;;;;6.20;2.30;;;29.90;69.80;;;;;;5151129;27;20437;-71
2023/06/29 10:52:03;;;;;;;5.33;2.63;;;29.90;68.30;;;;;;5150914;27;20425;-70
2023/06/29 10:54:29;;;;;;;4.97;2.40;;;29.90;70.00;;;;;;5115132;27;20908;-71
2023/06/29 10:57:07;;;;;;;6.60;2.60;;;29.70;69.40;;;;;;5151001;27;20413;-71
2023/06/29 10:59:34;;;;;;;5.40;2.77;;;30.00;69.60;;;;;;5151048;27;21027;-71
2023/06/29 11:02:00;;;;;;;8.97;2.40;;;30.50;70.00;;;;;;5150804;27;20418;-71
2023/06/29 11:04:27;;;;;;;6.80;2.60;;;31.10;68.70;;;;;;5150510;27;20414;-72
2023/06/29 11:06:53;;;;;;;3.03;2.33;;;31.30;67.80;;;;;;5132259;27;20417;-72
2023/06/29 11:09:19;;;;;;;5.67;2.97;;;31.70;67.00;;;;;;5150583;27;20454;-72
2023/06/29 11:11:48;;;;;;;4.47;2.60;;;31.30;65.20;;;;;;5130989;27;20752;-70
2023/06/29 11:14:15;;;;;;;6.00;2.57;;;31.60;67.80;;;;;;5131074;27;20422;-69
2023/06/29 11:16:40;;;;;;;3.67;2.67;;;31.90;65.20;;;;;;5132782;27;20417;-69
2023/06/29 11:19:07;;;;;;;3.90;2.50;;;32.20;67.10;;;;;;5150319;27;20406;-70
2023/06/29 11:21:33;;;;;;;6.03;2.70;;;31.90;65.10;;;;;;5150574;27;20284;-69
2023/06/29 11:23:58;;;;;;;3.47;2.33;;;31.60;65.70;;;;;;5150425;27;20496;-69
2023/06/29 11:26:26;;;;;;;4.87;2.40;;;31.50;66.60;;;;;;5150187;27;20455;-70
2023/06/29 11:28:52;;;;;;;3.40;2.53;;;31.30;64.90;;;;;;5149964;27;20915;-70
2023/06/29 11:31:19;;;;;;;9.60;2.33;;;31.40;66.10;;;;;;5130705;27;20997;-70
2023/06/29 11:33:49;;;;;;;2.93;2.63;;;31.50;65.10;;;;;;5149738;27;20413;-70
2023/06/29 11:36:25;;;;;;;2.70;2.30;;;31.50;66.00;;;;;;5149711;27;20474;-71
2023/06/29 11:39:03;;;;;;;4.93;2.77;;;31.70;66.40;;;;;;5149622;27;20421;-73
2023/06/29 11:41:30;;;;;;;4.57;2.50;;;31.40;65.60;;;;;;5149187;27;21082;-73
2023/06/29 11:43:57;;;;;;;4.00;2.43;;;31.00;66.90;;;;;;5149065;27;20424;-74
2023/06/29 11:46:23;;;;;;;2.43;2.23;;;30.50;68.70;;;;;;5149117;27;20558;-73
2023/06/29 11:48:55;;;;;;;9.60;2.40;;;30.70;68.20;;;;;;5149317;27;20933;-75
2023/06/29 11:51:25;;;;;;;5.43;3.03;;;30.90;67.90;;;;;;5149137;27;20287;-71
2023/06/29 11:53:53;;;;;;;4.80;3.20;;;31.10;69.60;;;;;;5148910;27;20409;-70
2023/06/29 11:56:37;;;;;;;3.47;3.10;;;31.60;69.00;;;;;;5149702;27;20414;-70
2023/06/29 11:59:15;;;;;;;4.33;2.43;;;31.80;67.10;;;;;;5148876;27;20409;-71
2023/06/29 12:01:43;;;;;;;4.43;2.80;;;31.70;67.20;;;;;;5149213;27;20783;-71
2023/06/29 12:04:09;;;;;;;5.03;2.53;;;31.40;65.20;;;;;;5149959;27;20810;-71
2023/06/29 12:06:36;;;;;;;4.00;2.70;;;30.80;65.20;;;;;;5130578;27;20407;-71
2023/06/29 12:09:11;;;;;;;2.87;2.67;;;30.90;66.70;;;;;;5149091;27;20433;-71
2023/06/29 12:11:37;;;;;;;5.33;3.37;;;31.10;66.10;;;;;;5149065;27;20433;-71
2023/06/29 12:14:02;;;;;;;4.83;2.97;;;31.40;66.80;;;;;;5149047;27;21231;-71
2023/06/29 12:16:28;;;;;;;3.00;2.70;;;31.70;67.00;;;;;;5130304;27;20186;-72
2023/06/29 12:18:53;;;;;;;4.90;3.00;;;32.20;66.80;;;;;;5148710;27;20180;-70
2023/06/29 12:21:20;;;;;;;11.47;3.20;;;32.30;65.60;;;;;;5129706;27;20208;-70
2023/06/29 12:23:46;;;;;;;3.43;3.10;;;32.50;63.60;;;;;;5130521;27;20180;-71
2023/06/29 12:26:12;;;;;;;10.83;3.13;;;32.50;63.90;;;;;;5148620;27;20494;-70
2023/06/29 12:28:38;;;;;;;6.27;3.80;;;31.80;64.30;;;;;;5148609;27;20836;-71
2023/06/29 12:31:06;;;;;;;7.10;3.50;;;31.10;64.70;;;;;;5129412;27;20437;-69
2023/06/29 12:33:33;;;;;;;8.70;3.80;;;30.50;64.60;;;;;;5148469;27;20421;-71
2023/06/29 12:36:01;;;;;;;6.40;3.93;;;30.30;66.00;;;;;;5130249;27;20441;-71
2023/06/29 12:38:27;;;;;;;3.87;3.57;;;29.70;65.90;;;;;;5130134;27;20506;-70
2023/06/29 12:40:53;;;;;;;5.17;3.93;;;29.70;66.70;;;;;;5148141;27;20489;-70
2023/06/29 12:43:18;;;;;;;7.43;5.03;;;29.50;65.50;;;;;;5112524;27;20196;-69